createdAt,value
2023-10-31T00:03:32.409Z,6.00
2023-10-31T00:08:42.158Z,6.10
2023-10-31T00:13:52.446Z,6.20
2023-10-31T00:19:02.095Z,5.90
2023-10-31T00:24:13.650Z,7.20
2023-10-31T00:29:23.298Z,7.90
2023-10-31T00:34:33.224Z,6.70
2023-10-31T00:39:42.893Z,6.80
2023-10-31T00:44:52.474Z,8.10
2023-10-31T00:50:02.090Z,6.40
2023-10-31T00:55:12.765Z,7.20
2023-10-31T01:00:23.956Z,7.50
2023-10-31T01:05:33.708Z,8.40
2023-10-31T01:10:43.389Z,7.60
2023-10-31T01:15:53.272Z,6.30
2023-10-31T01:21:03.141Z,6.50
2023-10-31T01:26:12.844Z,8.00
2023-10-31T01:31:22.611Z,7.00
2023-10-31T01:36:33.238Z,6.70
2023-10-31T01:41:45.316Z,7.10
2023-10-31T01:46:55.308Z,6.70
2023-10-31T01:52:06.256Z,6.30
2023-10-31T01:57:17.421Z,6.90
2023-10-31T02:02:29.958Z,6.70
2023-10-31T02:07:40.115Z,6.50
2023-10-31T02:12:49.938Z,7.00
2023-10-31T02:17:59.955Z,7.30
2023-10-31T02:23:10.197Z,7.40
2023-10-31T02:28:20.051Z,8.30
2023-10-31T02:33:29.827Z,9.50
2023-10-31T02:38:39.776Z,8.20
2023-10-31T02:43:50.036Z,7.70
2023-10-31T02:48:59.634Z,8.00
2023-10-31T02:54:10.536Z,8.90
2023-10-31T02:59:20.212Z,8.60
2023-10-31T03:04:30.225Z,9.10
2023-10-31T03:09:40.223Z,8.50
2023-10-31T03:14:50.296Z,8.30
2023-10-31T03:20:00.289Z,7.80
2023-10-31T03:25:12.155Z,9.00
2023-10-31T03:30:21.990Z,8.90
2023-10-31T03:35:32.064Z,9.40
2023-10-31T03:40:42.478Z,9.10
2023-10-31T03:45:52.353Z,8.80
2023-10-31T03:51:02.047Z,10.00
2023-10-31T03:56:12.592Z,8.60
2023-10-31T04:01:22.351Z,9.30
2023-10-31T04:06:32.280Z,8.10
2023-10-31T04:11:42.763Z,10.50
2023-10-31T04:16:52.600Z,10.90
2023-10-31T04:22:02.418Z,9.50
2023-10-31T04:27:12.519Z,8.90
2023-10-31T04:32:22.231Z,9.90
2023-10-31T04:37:34.645Z,8.90
2023-10-31T04:42:49.044Z,9.90
2023-10-31T04:47:59.154Z,8.50
2023-10-31T04:53:09.715Z,8.90
2023-10-31T04:58:19.459Z,8.50
2023-10-31T05:03:29.595Z,8.40
2023-10-31T05:08:39.504Z,9.20
2023-10-31T05:13:49.135Z,8.80
2023-10-31T05:19:06.003Z,8.50
2023-10-31T05:24:16.037Z,8.90
2023-10-31T05:29:25.776Z,7.50
2023-10-31T05:34:35.556Z,9.80
2023-10-31T05:39:45.175Z,8.80
2023-10-31T05:44:54.969Z,8.10
2023-10-31T05:50:05.053Z,7.70
2023-10-31T05:55:15.530Z,8.00
2023-10-31T06:00:25.762Z,7.60
2023-10-31T06:05:35.698Z,8.20
2023-10-31T06:10:45.939Z,7.70
2023-10-31T06:15:58.300Z,7.60
2023-10-31T06:21:11.437Z,7.50
2023-10-31T06:26:21.328Z,7.70
2023-10-31T06:31:31.145Z,7.00
2023-10-31T06:36:41.036Z,6.60
2023-10-31T06:41:50.886Z,7.50
2023-10-31T06:47:00.874Z,7.90
2023-10-31T06:52:11.540Z,8.40
2023-10-31T06:57:21.124Z,6.90
2023-10-31T07:02:30.849Z,6.20
2023-10-31T07:07:40.590Z,6.30
2023-10-31T07:12:50.346Z,6.20
2023-10-31T07:18:00.097Z,5.00
2023-10-31T07:23:09.739Z,4.30
2023-10-31T07:28:20.006Z,5.20
2023-10-31T07:33:29.729Z,5.20
2023-10-31T07:38:39.470Z,4.60
2023-10-31T07:43:49.316Z,4.70
2023-10-31T07:48:59.228Z,4.80
2023-10-31T07:54:10.976Z,3.30
2023-10-31T07:59:20.853Z,4.60
2023-10-31T08:04:31.326Z,4.40
2023-10-31T08:09:41.235Z,4.00
2023-10-31T08:14:51.147Z,4.10
2023-10-31T08:20:00.811Z,3.60
2023-10-31T08:25:12.226Z,3.40
2023-10-31T08:30:23.179Z,3.80
2023-10-31T08:35:32.986Z,3.80
2023-10-31T08:40:42.829Z,3.00
2023-10-31T08:45:52.765Z,3.80
2023-10-31T08:51:02.484Z,3.20
2023-10-31T08:56:13.496Z,3.90
2023-10-31T09:01:23.555Z,3.80
2023-10-31T09:06:33.378Z,2.80
2023-10-31T09:11:43.802Z,3.30
2023-10-31T09:16:53.505Z,3.40
2023-10-31T09:22:03.383Z,3.20
2023-10-31T09:27:13.939Z,3.40
2023-10-31T09:32:24.748Z,4.40
2023-10-31T09:37:34.623Z,3.90
2023-10-31T09:42:47.772Z,3.20
2023-10-31T09:47:58.841Z,3.60
2023-10-31T09:53:11.124Z,2.80
2023-10-31T09:58:20.851Z,2.70
2023-10-31T10:03:31.681Z,3.60
2023-10-31T10:08:45.032Z,4.10
2023-10-31T10:13:55.850Z,3.80
2023-10-31T10:19:22.149Z,3.50
2023-10-31T10:24:32.045Z,4.30
2023-10-31T10:29:42.974Z,3.80
2023-10-31T10:34:53.943Z,5.40
2023-10-31T10:40:06.374Z,5.90
2023-10-31T10:45:18.011Z,3.90
2023-10-31T10:50:31.349Z,3.60
2023-10-31T10:55:49.825Z,4.50
2023-10-31T11:01:01.318Z,3.20
2023-10-31T11:06:12.610Z,3.40
2023-10-31T11:11:24.476Z,3.90
2023-10-31T11:16:45.909Z,4.40
2023-10-31T11:22:05.886Z,4.30
2023-10-31T11:27:16.225Z,3.50
2023-10-31T11:32:31.135Z,4.90
2023-10-31T11:37:40.775Z,3.60
2023-10-31T11:42:55.634Z,3.50
2023-10-31T11:48:07.105Z,5.90
2023-10-31T11:53:18.939Z,3.50
2023-10-31T11:58:32.054Z,4.00
2023-10-31T12:03:49.167Z,4.80
2023-10-31T12:09:03.880Z,4.10
2023-10-31T12:14:13.921Z,4.60
2023-10-31T12:19:27.111Z,5.40
2023-10-31T12:24:37.072Z,4.50
2023-10-31T12:29:46.920Z,5.00
2023-10-31T12:34:56.928Z,5.50
2023-10-31T12:40:10.691Z,6.60
2023-10-31T12:45:21.914Z,6.70
2023-10-31T12:50:31.793Z,6.90
2023-10-31T12:55:46.754Z,5.40
2023-10-31T13:00:59.041Z,6.90
2023-10-31T13:06:22.005Z,6.40
2023-10-31T13:11:35.514Z,7.40
2023-10-31T13:16:45.380Z,6.70
2023-10-31T13:21:58.139Z,5.40
2023-10-31T13:27:09.327Z,5.40
2023-10-31T13:32:19.118Z,6.40
2023-10-31T13:37:28.756Z,6.30
2023-10-31T13:42:38.820Z,5.10
2023-10-31T13:47:48.672Z,5.50
2023-10-31T13:52:58.802Z,4.90
2023-10-31T13:58:08.824Z,4.60
2023-10-31T14:03:19.256Z,4.40
2023-10-31T14:08:29.228Z,5.40
2023-10-31T14:13:41.123Z,4.30
2023-10-31T14:18:51.739Z,3.00
2023-10-31T14:24:08.377Z,3.80
2023-10-31T14:29:21.030Z,2.30
2023-10-31T14:34:30.809Z,2.50
2023-10-31T14:39:40.725Z,2.40
2023-10-31T14:44:50.752Z,2.40
2023-10-31T14:50:00.360Z,2.60
2023-10-31T14:55:13.783Z,2.60
2023-10-31T15:00:23.994Z,2.80
2023-10-31T15:05:34.165Z,2.80
2023-10-31T15:10:43.953Z,2.00
2023-10-31T15:15:53.818Z,3.10
2023-10-31T15:21:03.781Z,2.60
2023-10-31T15:26:14.843Z,3.30
2023-10-31T15:31:25.023Z,4.40
2023-10-31T15:36:34.997Z,3.90
2023-10-31T15:41:44.692Z,33.20
2023-10-31T15:46:54.465Z,16.00
2023-10-31T15:52:04.534Z,9.50
2023-10-31T15:57:18.755Z,4.70
2023-10-31T16:02:28.702Z,3.20
2023-10-31T16:07:39.251Z,3.10
2023-10-31T16:12:48.907Z,2.20
2023-10-31T16:17:58.746Z,2.60
2023-10-31T16:23:08.608Z,2.20
2023-10-31T16:28:18.308Z,2.70
2023-10-31T16:33:29.397Z,2.30
2023-10-31T16:38:39.360Z,3.10
2023-10-31T16:43:49.288Z,2.80
2023-10-31T16:48:58.979Z,3.10
2023-10-31T16:54:09.287Z,2.90
2023-10-31T16:59:19.174Z,4.20
2023-10-31T17:04:29.308Z,2.90
2023-10-31T17:09:39.078Z,3.30
2023-10-31T17:14:48.991Z,2.60
2023-10-31T17:19:58.642Z,2.80
2023-10-31T17:25:09.456Z,1.70
2023-10-31T17:30:20.158Z,1.90
2023-10-31T17:35:30.007Z,1.70
2023-10-31T17:40:39.793Z,2.30
2023-10-31T17:45:50.208Z,2.50
2023-10-31T17:51:24.357Z,3.10
2023-10-31T17:56:34.720Z,3.50
2023-10-31T18:01:44.405Z,3.00
2023-10-31T18:06:54.248Z,2.80
2023-10-31T18:12:03.950Z,2.70
2023-10-31T18:17:13.826Z,2.40
2023-10-31T18:22:23.663Z,2.00
2023-10-31T18:27:33.620Z,2.70
2023-10-31T18:32:43.919Z,2.80
2023-10-31T18:37:53.717Z,2.10
2023-10-31T18:43:03.727Z,2.70
2023-10-31T18:48:13.409Z,3.20
2023-10-31T18:53:23.484Z,2.70
2023-10-31T18:58:33.233Z,2.80
2023-10-31T19:03:43.026Z,2.60
2023-10-31T19:08:52.782Z,2.50
2023-10-31T19:14:02.554Z,3.20
2023-10-31T19:19:12.623Z,3.30
2023-10-31T19:24:22.767Z,4.00
2023-10-31T19:29:32.684Z,3.80
2023-10-31T19:34:44.400Z,4.20
2023-10-31T19:39:54.219Z,3.90
2023-10-31T19:45:05.205Z,3.90
2023-10-31T19:50:16.494Z,3.40
2023-10-31T19:55:26.907Z,2.70
2023-10-31T20:00:36.692Z,2.60
2023-10-31T20:05:46.300Z,2.70
2023-10-31T20:10:56.207Z,3.30
2023-10-31T20:16:06.527Z,2.90
2023-10-31T20:21:16.394Z,2.90
2023-10-31T20:26:26.112Z,2.80
2023-10-31T20:31:36.801Z,2.70
2023-10-31T20:36:46.539Z,2.60
2023-10-31T20:41:56.417Z,2.40
2023-10-31T20:47:06.617Z,2.10
2023-10-31T20:52:16.423Z,2.20
2023-10-31T20:57:26.162Z,2.00
2023-10-31T21:02:36.152Z,1.70
2023-10-31T21:07:46.068Z,1.40
2023-10-31T21:12:56.090Z,2.00
2023-10-31T21:18:07.157Z,2.10
2023-10-31T21:23:18.207Z,1.80
2023-10-31T21:28:28.847Z,2.00
2023-10-31T21:33:38.985Z,1.80
2023-10-31T21:38:48.842Z,2.10
2023-10-31T21:43:58.655Z,1.60
2023-10-31T21:49:08.358Z,2.40
2023-10-31T21:54:18.254Z,2.60
2023-10-31T21:59:29.961Z,2.40
2023-10-31T22:04:39.791Z,2.10
2023-10-31T22:09:49.394Z,2.80
2023-10-31T22:14:59.692Z,2.20
2023-10-31T22:20:11.763Z,2.30
2023-10-31T22:25:22.128Z,1.60
2023-10-31T22:30:31.973Z,1.10
2023-10-31T22:35:41.752Z,1.50
2023-10-31T22:40:51.499Z,1.20
2023-10-31T22:46:01.950Z,1.40
2023-10-31T22:51:12.541Z,1.00
2023-10-31T22:56:22.544Z,1.60
2023-10-31T23:01:32.203Z,0.90
2023-10-31T23:06:42.444Z,0.60
2023-10-31T23:11:52.193Z,0.80
2023-10-31T23:17:01.951Z,1.20
2023-10-31T23:22:11.875Z,0.60
2023-10-31T23:27:21.710Z,0.50
2023-10-31T23:32:31.584Z,1.70
2023-10-31T23:37:41.645Z,1.70
2023-10-31T23:42:51.348Z,1.30
2023-10-31T23:48:01.283Z,2.00
2023-10-31T23:53:11.105Z,0.70
2023-10-31T23:58:20.904Z,0.70
